Time;durP1;ratioP1;P1;durP2;ratioP2;P2;SDS_P1;SDS_P2;PMS_P1;PMS_P2;Temp;Humidity;BMP_temperature;BMP_pressure;BME280_temperature;BME280_humidity;BME280_pressure;Samples;Min_cycle;Max_cycle;Signal;HPM_P1;HPM_P2
2023/12/22 00:01:08;;;;;;;13.45;2.40;;;4.00;16.20;;;;;;5065746;28;20142;-68
2023/12/22 00:03:34;;;;;;;16.23;2.58;;;3.90;43.70;;;;;;5058631;28;20040;-68
2023/12/22 00:06:00;;;;;;;16.83;3.47;;;4.00;68.20;;;;;;5054424;28;20090;-69
2023/12/22 00:08:25;;;;;;;12.50;2.90;;;4.00;81.80;;;;;;5050884;28;20086;-69
2023/12/22 00:10:51;;;;;;;17.25;2.95;;;3.90;91.60;;;;;;5074539;28;20115;-68
2023/12/22 00:13:16;;;;;;;15.30;3.17;;;3.90;96.30;;;;;;5063161;28;20368;-68
2023/12/22 00:15:42;;;;;;;15.40;3.20;;;3.90;98.80;;;;;;5057138;28;20085;-73
2023/12/22 00:18:08;;;;;;;17.75;2.88;;;4.00;99.90;;;;;;5064127;28;20118;-70
2023/12/22 00:20:34;;;;;;;25.00;3.33;;;4.00;99.90;;;;;;5070898;28;20111;-69
2023/12/22 00:23:00;;;;;;;17.85;2.88;;;4.00;99.90;;;;;;5056881;28;20094;-69
2023/12/22 00:25:25;;;;;;;15.75;2.63;;;4.10;99.90;;;;;;5041551;28;20511;-69
2023/12/22 00:27:51;;;;;;;21.33;3.55;;;4.10;99.90;;;;;;5056682;28;20028;-69
2023/12/22 00:30:17;;;;;;;15.52;2.95;;;4.10;99.90;;;;;;5056395;28;20067;-68
2023/12/22 00:32:42;;;;;;;20.42;3.17;;;4.10;99.90;;;;;;5053778;28;20032;-69
2023/12/22 00:35:08;;;;;;;18.63;3.05;;;4.10;99.90;;;;;;5055033;28;20948;-69
2023/12/22 00:37:34;;;;;;;10.65;2.30;;;4.10;99.90;;;;;;5052716;28;20090;-68
2023/12/22 00:40:00;;;;;;;17.27;4.07;;;4.20;99.90;;;;;;5052451;28;20063;-71
2023/12/22 00:42:26;;;;;;;14.18;2.83;;;4.20;67.30;;;;;;5070743;28;20059;-69
2023/12/22 00:44:52;;;;;;;16.58;2.85;;;4.40;1.00;;;;;;5080230;28;20040;-74
2023/12/22 00:47:17;;;;;;;12.40;2.40;;;4.40;1.00;;;;;;5060265;28;20507;-68
2023/12/22 00:49:43;;;;;;;16.02;2.78;;;4.40;1.00;;;;;;5054248;28;20037;-71
2023/12/22 00:52:09;;;;;;;16.40;2.38;;;4.40;1.00;;;;;;5059126;28;20044;-68
2023/12/22 00:54:34;;;;;;;19.23;2.50;;;4.40;1.00;;;;;;5052560;28;20129;-73
2023/12/22 00:57:00;;;;;;;17.90;2.60;;;4.30;1.00;;;;;;5065482;28;20036;-69
2023/12/22 00:59:26;;;;;;;12.43;2.15;;;4.40;1.00;;;;;;5067003;28;20037;-68
2023/12/22 01:01:51;;;;;;;12.85;2.25;;;4.30;1.00;;;;;;5052940;28;20052;-70
2023/12/22 01:04:17;;;;;;;24.58;3.38;;;4.30;1.00;;;;;;5069363;28;20545;-71
2023/12/22 01:06:43;;;;;;;19.33;4.18;;;4.30;1.00;;;;;;5041285;28;20036;-69
2023/12/22 01:09:09;;;;;;;18.90;3.00;;;4.30;1.00;;;;;;5084762;28;20047;-68
2023/12/22 01:11:34;;;;;;;18.90;3.05;;;4.30;1.00;;;;;;5056457;28;20044;-70
2023/12/22 01:14:00;;;;;;;13.07;2.35;;;4.30;1.00;;;;;;5058589;28;20045;-66
2023/12/22 01:16:26;;;;;;;16.80;2.72;;;4.30;1.00;;;;;;5048372;28;20452;-67
2023/12/22 01:18:51;;;;;;;16.02;1.80;;;4.30;99.90;;;;;;5055139;28;20417;-70
2023/12/22 01:21:17;;;;;;;11.98;1.90;;;4.10;99.90;;;;;;5067463;28;20036;-75
2023/12/22 01:23:43;;;;;;;16.98;2.85;;;4.00;99.90;;;;;;5052538;28;20044;-72
2023/12/22 01:26:09;;;;;;;21.65;2.97;;;3.90;1.00;;;;;;5068993;28;20460;-71
2023/12/22 01:28:35;;;;;;;16.88;3.13;;;3.80;1.00;;;;;;5068437;28;20044;-70
2023/12/22 01:31:01;;;;;;;14.32;3.05;;;3.80;1.00;;;;;;5072615;28;20075;-68
2023/12/22 01:33:27;;;;;;;23.65;3.63;;;3.80;1.00;;;;;;5061439;28;20056;-69
2023/12/22 01:35:52;;;;;;;20.83;3.65;;;3.90;1.00;;;;;;5046709;28;20142;-70
2023/12/22 01:38:18;;;;;;;23.45;3.67;;;3.90;1.00;;;;;;5044094;28;20040;-70
2023/12/22 01:40:44;;;;;;;18.52;3.10;;;4.00;1.00;;;;;;5048343;28;20032;-72
2023/12/22 01:43:10;;;;;;;17.55;2.88;;;3.90;1.00;;;;;;5047107;28;20032;-70
2023/12/22 01:45:35;;;;;;;18.50;2.70;;;3.90;1.00;;;;;;5057550;28;20048;-68
2023/12/22 01:48:02;;;;;;;15.52;2.60;;;3.90;1.00;;;;;;5069678;28;20086;-70
2023/12/22 01:50:28;;;;;;;11.85;2.05;;;3.90;1.00;;;;;;5032885;28;20148;-71
2023/12/22 01:52:54;;;;;;;13.27;2.55;;;3.90;1.00;;;;;;5055589;28;20048;-70
2023/12/22 01:55:21;;;;;;;16.20;2.53;;;3.90;1.00;;;;;;5042698;28;20050;-69
2023/12/22 01:57:47;;;;;;;18.17;2.55;;;4.00;99.90;;;;;;5069629;28;20036;-69
2023/12/22 02:00:14;;;;;;;18.52;3.38;;;4.00;1.00;;;;;;5059829;28;20391;-71
2023/12/22 02:02:42;;;;;;;16.05;3.03;;;4.10;1.00;;;;;;5054536;28;20465;-69
2023/12/22 02:05:11;;;;;;;15.30;2.47;;;4.20;99.90;;;;;;5051980;28;20105;-68
2023/12/22 02:07:39;;;;;;;11.88;2.50;;;4.30;99.90;;;;;;5056189;28;20149;-67
2023/12/22 02:10:07;;;;;;;19.05;3.58;;;4.30;99.90;;;;;;5054789;28;20155;-66
2023/12/22 02:12:33;;;;;;;16.02;2.70;;;4.20;99.90;;;;;;5057961;28;20054;-66
2023/12/22 02:14:58;;;;;;;20.30;3.25;;;4.20;99.90;;;;;;5082867;28;20041;-66
2023/12/22 02:17:29;;;;;;;20.20;2.60;;;4.20;1.00;;;;;;5038296;28;20040;-68
2023/12/22 02:19:56;;;;;;;19.20;3.38;;;4.20;99.90;;;;;;5073223;28;20032;-66
2023/12/22 02:22:22;;;;;;;20.02;4.63;;;4.30;99.90;;;;;;5053387;28;20048;-66
2023/12/22 02:24:48;;;;;;;22.70;3.42;;;4.30;99.90;;;;;;5074355;28;20500;-65
2023/12/22 02:27:25;;;;;;;17.67;2.83;;;4.30;99.90;;;;;;5061967;28;20127;-65
2023/12/22 02:30:29;;;;;;;23.33;3.40;;;4.40;99.90;;;;;;5086046;28;20109;-67
2023/12/22 02:33:03;;;;;;;24.80;3.33;;;4.50;99.90;;;;;;5001445;28;20184;-67
2023/12/22 02:35:30;;;;;;;15.20;3.13;;;4.50;99.90;;;;;;4995109;28;20099;-67
2023/12/22 02:38:00;;;;;;;20.95;2.58;;;4.60;99.90;;;;;;5052640;28;20097;-68
2023/12/22 02:40:26;;;;;;;14.88;3.42;;;4.60;99.90;;;;;;5066180;28;20185;-67
2023/12/22 02:42:53;;;;;;;16.70;2.88;;;4.60;99.90;;;;;;5066646;28;20492;-67
2023/12/22 02:45:19;;;;;;;21.77;3.00;;;4.60;99.90;;;;;;5056791;28;20040;-67
2023/12/22 02:47:46;;;;;;;21.23;3.40;;;4.60;99.90;;;;;;5075032;28;20404;-66
2023/12/22 02:50:16;;;;;;;15.48;2.83;;;4.60;99.90;;;;;;5064993;28;20150;-69
2023/12/22 02:52:42;;;;;;;23.20;3.08;;;4.60;99.90;;;;;;5049339;28;20032;-67
2023/12/22 02:55:08;;;;;;;17.52;3.83;;;4.60;99.90;;;;;;5074150;28;20032;-66
2023/12/22 02:57:34;;;;;;;15.07;2.92;;;4.60;99.90;;;;;;5071897;28;20028;-66
2023/12/22 03:00:00;;;;;;;18.05;3.17;;;4.50;99.90;;;;;;5064109;28;21801;-67
2023/12/22 03:02:26;;;;;;;16.63;2.97;;;4.60;99.90;;;;;;5060886;28;20082;-66
2023/12/22 03:04:51;;;;;;;17.83;3.22;;;4.50;99.90;;;;;;5064946;28;20040;-66
2023/12/22 03:07:17;;;;;;;18.42;2.90;;;4.50;99.90;;;;;;5055156;28;20042;-66
2023/12/22 03:09:43;;;;;;;15.40;2.50;;;4.50;99.90;;;;;;5086764;28;20039;-67
2023/12/22 03:12:10;;;;;;;15.57;2.85;;;4.50;99.90;;;;;;5085344;28;20042;-67
2023/12/22 03:14:36;;;;;;;27.25;2.80;;;4.50;99.90;;;;;;5064634;28;20040;-66
2023/12/22 03:17:03;;;;;;;16.38;2.95;;;4.50;99.90;;;;;;5056159;28;20094;-65
2023/12/22 03:19:29;;;;;;;16.65;2.40;;;4.50;99.90;;;;;;5066215;28;20037;-67
2023/12/22 03:21:56;;;;;;;15.82;2.30;;;4.50;99.90;;;;;;5060273;28;20095;-67
2023/12/22 03:24:28;;;;;;;10.98;2.05;;;4.60;99.90;;;;;;5078168;28;20071;-67
2023/12/22 03:26:54;;;;;;;13.00;1.80;;;4.70;99.90;;;;;;5059020;28;20464;-67
2023/12/22 03:29:20;;;;;;;15.85;2.40;;;4.70;99.90;;;;;;5079237;28;20085;-66
2023/12/22 03:31:46;;;;;;;12.63;2.05;;;4.70;99.90;;;;;;5069396;28;20424;-65
2023/12/22 03:34:13;;;;;;;14.15;2.88;;;4.60;99.90;;;;;;5057569;28;20036;-66
2023/12/22 03:36:38;;;;;;;13.35;3.50;;;4.60;99.90;;;;;;5061321;28;20040;-66
2023/12/22 03:39:04;;;;;;;19.75;2.28;;;4.50;99.90;;;;;;5064606;28;20032;-67
2023/12/22 03:41:30;;;;;;;15.73;2.30;;;4.40;99.90;;;;;;5091272;28;20039;-66
2023/12/22 03:43:57;;;;;;;20.27;3.08;;;4.40;99.90;;;;;;5066132;28;20131;-66
2023/12/22 03:46:23;;;;;;;12.25;2.00;;;4.40;1.00;;;;;;5067003;28;20361;-67
2023/12/22 03:48:50;;;;;;;16.60;2.75;;;4.40;1.00;;;;;;5072903;28;20047;-66
2023/12/22 03:51:15;;;;;;;11.07;2.70;;;4.40;1.00;;;;;;5088650;28;20039;-65
2023/12/22 03:53:42;;;;;;;13.38;2.10;;;4.40;1.00;;;;;;5062818;28;20135;-66
2023/12/22 03:56:10;;;;;;;14.57;2.40;;;4.50;1.00;;;;;;5056413;28;20456;-66
2023/12/22 03:58:37;;;;;;;15.10;2.60;;;4.50;1.00;;;;;;5060176;28;20051;-67
2023/12/22 04:01:03;;;;;;;12.90;2.25;;;4.50;1.00;;;;;;5054104;28;20032;-67
2023/12/22 04:03:29;;;;;;;15.60;2.78;;;4.60;99.90;;;;;;5070128;28;20395;-68
2023/12/22 04:05:55;;;;;;;21.55;2.53;;;4.60;1.00;;;;;;5086771;28;20059;-66
2023/12/22 04:08:20;;;;;;;16.17;2.60;;;4.60;1.00;;;;;;5082342;28;20097;-68
2023/12/22 04:10:46;;;;;;;13.23;2.60;;;4.50;1.00;;;;;;5056873;28;20058;-67
2023/12/22 04:13:12;;;;;;;11.55;2.25;;;4.40;1.00;;;;;;5054510;28;20032;-67
2023/12/22 04:15:38;;;;;;;13.73;2.42;;;4.40;1.00;;;;;;5062719;28;20075;-67
2023/12/22 04:18:04;;;;;;;14.32;2.42;;;4.40;1.00;;;;;;5063663;28;20047;-66
2023/12/22 04:20:30;;;;;;;12.55;2.38;;;4.40;1.00;;;;;;5072666;28;20120;-66
2023/12/22 04:22:55;;;;;;;12.68;2.40;;;4.40;1.00;;;;;;5074250;28;20031;-66
2023/12/22 04:25:22;;;;;;;22.77;3.15;;;4.30;1.00;;;;;;5069484;28;20127;-66
2023/12/22 04:27:49;;;;;;;24.00;3.53;;;4.30;1.00;;;;;;5067994;28;20051;-66
2023/12/22 04:30:15;;;;;;;14.57;3.60;;;4.30;1.00;;;;;;5054448;28;20055;-66
2023/12/22 04:32:40;;;;;;;17.10;2.72;;;4.30;1.00;;;;;;5059569;28;20036;-66
2023/12/22 04:35:06;;;;;;;18.73;2.78;;;4.30;1.00;;;;;;5057982;28;20132;-67
2023/12/22 04:37:32;;;;;;;19.75;2.83;;;4.30;1.00;;;;;;5086063;28;20559;-66
2023/12/22 04:39:58;;;;;;;17.10;3.00;;;4.30;1.00;;;;;;5046583;28;20055;-66
2023/12/22 04:42:25;;;;;;;19.40;4.13;;;4.20;1.00;;;;;;5071205;28;20032;-66
2023/12/22 04:44:54;;;;;;;27.83;3.60;;;4.20;1.00;;;;;;5073795;28;20033;-66
2023/12/22 04:47:19;;;;;;;18.98;2.72;;;4.20;1.00;;;;;;5065630;28;20455;-67
2023/12/22 04:49:45;;;;;;;18.13;2.92;;;4.30;1.00;;;;;;5059603;28;20047;-67
2023/12/22 04:52:11;;;;;;;17.20;2.88;;;4.30;4.90;;;;;;5061370;28;20143;-66
2023/12/22 04:54:37;;;;;;;22.80;3.92;;;4.40;30.00;;;;;;5054055;28;20102;-64
2023/12/22 04:57:03;;;;;;;20.73;3.30;;;4.40;34.30;;;;;;5063229;28;20031;-67
2023/12/22 04:59:29;;;;;;;18.90;3.03;;;4.40;23.50;;;;;;5062006;28;20096;-66
2023/12/22 05:01:54;;;;;;;19.52;4.10;;;4.40;1.00;;;;;;5073229;28;20044;-67
2023/12/22 05:04:21;;;;;;;18.23;3.28;;;4.50;1.00;;;;;;5046187;28;20130;-66
2023/12/22 05:06:47;;;;;;;22.02;3.63;;;4.50;1.00;;;;;;5061049;28;20075;-65
2023/12/22 05:09:12;;;;;;;31.58;3.88;;;4.60;1.00;;;;;;5068908;28;20028;-67
2023/12/22 05:11:38;;;;;;;24.95;3.55;;;4.60;1.00;;;;;;5067206;28;20089;-66
2023/12/22 05:14:04;;;;;;;17.83;2.95;;;4.60;1.00;;;;;;5087150;28;20039;-67
2023/12/22 05:16:31;;;;;;;17.63;2.67;;;4.70;1.00;;;;;;5059310;28;20075;-66
2023/12/22 05:18:57;;;;;;;19.13;3.00;;;4.70;1.00;;;;;;5055621;28;20095;-66
2023/12/22 05:21:23;;;;;;;21.52;3.05;;;4.80;99.90;;;;;;5065975;28;20044;-65
2023/12/22 05:23:50;;;;;;;20.35;3.08;;;4.80;1.00;;;;;;5052338;28;20468;-66
2023/12/22 05:26:20;;;;;;;17.20;4.15;;;4.80;99.90;;;;;;5066953;28;20434;-66
2023/12/22 05:28:45;;;;;;;14.20;2.70;;;4.90;99.90;;;;;;5083022;28;20101;-66
2023/12/22 05:31:11;;;;;;;18.83;3.13;;;4.90;99.90;;;;;;5060419;28;20052;-67
2023/12/22 05:33:37;;;;;;;17.92;4.15;;;5.00;99.90;;;;;;5068370;28;20044;-67
2023/12/22 05:36:03;;;;;;;17.05;2.55;;;5.00;99.90;;;;;;5063399;28;20070;-67
2023/12/22 05:38:28;;;;;;;15.15;3.03;;;5.00;99.90;;;;;;5049007;28;20077;-67
2023/12/22 05:40:54;;;;;;;11.60;2.40;;;5.10;99.90;;;;;;5055431;28;20037;-67
2023/12/22 05:43:20;;;;;;;22.30;3.40;;;5.10;99.90;;;;;;5069199;28;20032;-66
2023/12/22 05:45:45;;;;;;;18.33;3.42;;;5.10;99.90;;;;;;5068538;28;20042;-66
2023/12/22 05:48:11;;;;;;;13.52;3.28;;;5.20;99.90;;;;;;5076808;28;20036;-65
2023/12/22 05:50:36;;;;;;;22.85;3.38;;;5.20;86.60;;;;;;5053058;28;20040;-65
2023/12/22 05:53:02;;;;;;;21.83;2.90;;;5.20;99.90;;;;;;5062037;28;20039;-66
2023/12/22 05:55:29;;;;;;;12.38;2.63;;;5.20;1.00;;;;;;5068120;28;20123;-65
2023/12/22 05:57:55;;;;;;;21.80;3.28;;;5.30;1.00;;;;;;5061543;28;20417;-64
2023/12/22 06:00:21;;;;;;;17.15;2.65;;;5.20;42.20;;;;;;5072907;28;20036;-66
2023/12/22 06:02:47;;;;;;;16.05;3.83;;;5.20;20.50;;;;;;5068080;28;20391;-65
2023/12/22 06:05:13;;;;;;;14.77;2.58;;;5.30;21.50;;;;;;5070712;28;20104;-65
2023/12/22 06:07:39;;;;;;;15.85;2.50;;;5.20;90.20;;;;;;5069183;28;20044;-64
2023/12/22 06:10:06;;;;;;;16.95;2.75;;;5.30;99.90;;;;;;5072462;28;20079;-64
2023/12/22 06:12:32;;;;;;;16.77;2.78;;;5.20;99.90;;;;;;5068170;28;20362;-66
2023/12/22 06:14:58;;;;;;;19.60;2.83;;;5.30;1.00;;;;;;5060638;28;20052;-64
2023/12/22 06:17:23;;;;;;;16.33;2.70;;;5.30;62.30;;;;;;5052995;28;20032;-65
2023/12/22 06:19:49;;;;;;;18.52;2.88;;;5.30;99.90;;;;;;5066750;28;20593;-65
2023/12/22 06:22:14;;;;;;;17.30;2.97;;;5.30;1.00;;;;;;5053702;28;20037;-65
2023/12/22 06:24:40;;;;;;;18.50;3.38;;;5.30;39.80;;;;;;5059698;28;20463;-65
2023/12/22 06:27:06;;;;;;;20.83;3.20;;;5.30;1.00;;;;;;5061572;28;20073;-64
2023/12/22 06:29:32;;;;;;;17.52;3.47;;;5.30;99.90;;;;;;5065951;28;20055;-67
2023/12/22 06:31:58;;;;;;;12.48;3.38;;;5.40;99.90;;;;;;5060350;28;20056;-66
2023/12/22 06:34:23;;;;;;;16.58;2.33;;;5.40;1.00;;;;;;5087850;28;20523;-66
2023/12/22 06:36:50;;;;;;;17.30;3.47;;;5.40;99.90;;;;;;5052067;28;20063;-65
2023/12/22 06:39:15;;;;;;;19.00;2.92;;;5.50;99.90;;;;;;5068817;28;20028;-66
2023/12/22 06:41:41;;;;;;;16.05;3.63;;;5.40;99.90;;;;;;5059665;28;20055;-65
2023/12/22 06:44:07;;;;;;;16.50;2.90;;;5.40;1.00;;;;;;5075902;28;20086;-66
2023/12/22 06:46:33;;;;;;;23.40;2.85;;;5.40;99.90;;;;;;5056014;28;20045;-64
2023/12/22 06:48:59;;;;;;;12.88;1.83;;;5.40;99.90;;;;;;5060646;28;20040;-65
2023/12/22 06:51:35;;;;;;;16.40;3.75;;;5.40;99.90;;;;;;5049274;28;20040;-64
2023/12/22 06:54:04;;;;;;;12.88;2.40;;;5.40;1.00;;;;;;5057734;28;20119;-64
2023/12/22 06:56:33;;;;;;;12.93;3.05;;;5.40;99.90;;;;;;5071436;28;20036;-65
2023/12/22 06:58:59;;;;;;;13.98;1.98;;;5.40;99.90;;;;;;5057191;28;20040;-65
2023/12/22 07:01:33;;;;;;;13.95;2.33;;;5.40;99.90;;;;;;5079046;28;20047;-65
2023/12/22 07:04:02;;;;;;;13.52;2.55;;;5.40;99.90;;;;;;5044844;28;20040;-65
2023/12/22 07:06:30;;;;;;;14.50;2.53;;;5.50;1.00;;;;;;5065360;28;20112;-65
2023/12/22 07:09:17;;;;;;;17.23;2.33;;;5.40;99.90;;;;;;5062127;28;20039;-64
2023/12/22 07:11:50;;;;;;;12.55;2.55;;;5.40;99.90;;;;;;5070861;28;20043;-64
2023/12/22 07:14:16;;;;;;;11.90;2.67;;;5.50;99.90;;;;;;5065979;28;20053;-65
2023/12/22 07:16:44;;;;;;;13.95;2.15;;;5.50;99.90;;;;;;5062089;28;20076;-67
2023/12/22 07:19:13;;;;;;;12.45;2.25;;;5.50;99.90;;;;;;5068513;28;20044;-65
2023/12/22 07:21:39;;;;;;;8.82;2.10;;;5.50;99.90;;;;;;5038045;28;20110;-65
2023/12/22 07:24:06;;;;;;;17.88;2.45;;;5.50;99.90;;;;;;5063270;28;20043;-65
2023/12/22 07:26:31;;;;;;;13.20;2.40;;;5.50;99.90;;;;;;5055779;28;20131;-64
2023/12/22 07:28:58;;;;;;;19.63;2.53;;;5.50;99.90;;;;;;5067612;28;20036;-65
2023/12/22 07:31:24;;;;;;;15.90;2.85;;;5.60;99.90;;;;;;5068014;28;20052;-65
2023/12/22 07:33:50;;;;;;;11.55;2.45;;;5.50;99.90;;;;;;5059758;28;20506;-65
2023/12/22 07:36:16;;;;;;;14.27;2.67;;;5.60;99.90;;;;;;5058458;28;20040;-66
2023/12/22 07:38:41;;;;;;;12.60;2.00;;;5.60;99.90;;;;;;5082949;28;20476;-66
2023/12/22 07:41:07;;;;;;;11.38;1.83;;;5.60;99.90;;;;;;5046134;28;20032;-64
2023/12/22 07:43:33;;;;;;;10.48;2.03;;;5.60;99.90;;;;;;5042770;28;20040;-65
2023/12/22 07:45:59;;;;;;;11.15;2.05;;;5.70;99.90;;;;;;5054549;28;20063;-65
2023/12/22 07:48:24;;;;;;;16.90;2.75;;;5.60;99.90;;;;;;5081931;28;20854;-64
2023/12/22 07:50:50;;;;;;;21.02;2.65;;;5.70;99.90;;;;;;5056069;28;22543;-65
2023/12/22 07:53:16;;;;;;;13.93;2.17;;;5.60;99.90;;;;;;5071287;28;20032;-65
2023/12/22 07:55:43;;;;;;;9.07;1.88;;;5.60;99.90;;;;;;5061582;28;20048;-65
2023/12/22 07:58:08;;;;;;;14.55;2.22;;;5.70;99.90;;;;;;5068589;28;20039;-65
2023/12/22 08:00:34;;;;;;;7.82;1.75;;;5.70;99.90;;;;;;5062983;28;20116;-64
2023/12/22 08:03:00;;;;;;;10.02;2.10;;;5.60;99.90;;;;;;5057278;28;20048;-65
2023/12/22 08:05:26;;;;;;;12.45;2.13;;;5.60;99.90;;;;;;5073282;28;20041;-65
2023/12/22 08:07:52;;;;;;;13.80;2.20;;;5.60;99.90;;;;;;5054180;28;20032;-64
2023/12/22 08:10:18;;;;;;;12.82;3.17;;;5.60;99.90;;;;;;5056408;28;20052;-65
2023/12/22 08:12:44;;;;;;;12.07;2.08;;;5.60;99.90;;;;;;5087754;28;20087;-67
2023/12/22 08:15:12;;;;;;;18.02;2.25;;;5.70;99.90;;;;;;5075992;28;20526;-65
2023/12/22 08:17:47;;;;;;;16.60;3.17;;;5.70;99.90;;;;;;5060588;28;20040;-65
2023/12/22 08:20:18;;;;;;;10.30;2.45;;;5.80;99.90;;;;;;5052225;28;20043;-64
2023/12/22 08:22:47;;;;;;;12.55;1.70;;;5.70;99.90;;;;;;5070801;28;20039;-66
2023/12/22 08:25:13;;;;;;;21.23;2.85;;;5.80;99.90;;;;;;5052393;28;20047;-65
2023/12/22 08:27:39;;;;;;;12.23;2.22;;;5.90;99.90;;;;;;5061204;28;20048;-68
2023/12/22 08:30:06;;;;;;;16.08;2.78;;;5.90;99.90;;;;;;5045207;28;20044;-65
2023/12/22 08:32:31;;;;;;;9.20;2.30;;;6.00;99.90;;;;;;5064437;28;20142;-65
2023/12/22 08:34:57;;;;;;;19.50;3.33;;;6.00;99.90;;;;;;5074154;28;20479;-65
2023/12/22 08:37:23;;;;;;;21.35;3.03;;;6.00;99.90;;;;;;5047407;28;20032;-65
2023/12/22 08:39:50;;;;;;;12.48;2.60;;;6.10;99.90;;;;;;5067782;28;20456;-66
2023/12/22 08:42:19;;;;;;;10.88;2.72;;;6.10;99.90;;;;;;5070630;28;20050;-65
2023/12/22 08:44:44;;;;;;;18.98;4.07;;;6.10;99.90;;;;;;5079528;28;20047;-64
2023/12/22 08:47:10;;;;;;;22.75;3.17;;;6.00;99.90;;;;;;5046401;28;20040;-64
2023/12/22 08:49:36;;;;;;;7.45;2.15;;;5.90;99.90;;;;;;5079593;28;20047;-65
2023/12/22 08:52:03;;;;;;;17.83;2.65;;;5.80;99.90;;;;;;5076331;28;20054;-66
2023/12/22 08:54:29;;;;;;;10.90;1.77;;;5.70;1.00;;;;;;5073946;28;20612;-71
2023/12/22 08:56:55;;;;;;;16.42;2.88;;;5.70;1.00;;;;;;5072216;28;20036;-65
2023/12/22 08:59:20;;;;;;;9.00;2.10;;;5.70;1.00;;;;;;5086159;28;20051;-65
2023/12/22 09:01:46;;;;;;;14.18;2.55;;;5.70;1.00;;;;;;5063325;28;20563;-65
2023/12/22 09:04:12;;;;;;;12.13;2.20;;;5.70;24.10;;;;;;5078061;28;20043;-66
2023/12/22 09:06:37;;;;;;;12.13;2.45;;;5.60;99.90;;;;;;5054490;28;20056;-66
2023/12/22 09:09:04;;;;;;;7.68;1.70;;;5.60;99.90;;;;;;5054760;28;20115;-65
2023/12/22 09:11:29;;;;;;;9.93;1.70;;;5.60;99.90;;;;;;5065133;28;20116;-66
2023/12/22 09:13:55;;;;;;;9.15;1.60;;;5.60;99.90;;;;;;5082559;28;20465;-66
2023/12/22 09:16:22;;;;;;;11.48;1.90;;;5.60;99.90;;;;;;5071887;28;20127;-66
2023/12/22 09:18:48;;;;;;;7.50;2.42;;;5.60;99.90;;;;;;5054808;28;20045;-63
2023/12/22 09:21:14;;;;;;;7.55;1.40;;;5.60;99.90;;;;;;5039255;28;20465;-64
2023/12/22 09:23:39;;;;;;;6.82;1.35;;;5.70;99.90;;;;;;5047218;28;20136;-63
2023/12/22 09:26:05;;;;;;;7.32;1.42;;;5.70;99.90;;;;;;5055032;28;20062;-63
2023/12/22 09:28:30;;;;;;;9.25;1.40;;;5.70;99.90;;;;;;5063522;28;20064;-63
2023/12/22 09:30:56;;;;;;;4.78;1.10;;;5.70;99.90;;;;;;5081800;28;20492;-63
2023/12/22 09:33:24;;;;;;;12.25;1.65;;;5.80;99.90;;;;;;5065579;28;20115;-62
2023/12/22 09:35:50;;;;;;;6.93;1.38;;;5.70;99.90;;;;;;5061016;28;20649;-63
2023/12/22 09:38:16;;;;;;;5.30;1.20;;;5.70;99.90;;;;;;5057321;28;20048;-62
2023/12/22 09:40:42;;;;;;;7.10;1.13;;;5.80;99.90;;;;;;5062295;28;20094;-63
2023/12/22 09:43:08;;;;;;;5.80;1.17;;;5.80;99.90;;;;;;5074318;28;20047;-63
2023/12/22 09:45:34;;;;;;;4.80;0.70;;;5.80;99.90;;;;;;5071781;28;20043;-63
2023/12/22 09:48:01;;;;;;;7.10;0.95;;;5.80;1.00;;;;;;5054087;28;20396;-64
2023/12/22 09:50:28;;;;;;;9.20;1.58;;;5.80;99.90;;;;;;5069570;28;20895;-63
2023/12/22 09:52:54;;;;;;;8.30;0.90;;;5.90;99.90;;;;;;5079227;28;20043;-64
2023/12/22 09:55:22;;;;;;;3.70;0.80;;;5.90;45.30;;;;;;5058956;28;20126;-63
2023/12/22 09:57:49;;;;;;;3.75;1.42;;;5.90;13.10;;;;;;5065069;28;20464;-64
2023/12/22 10:00:16;;;;;;;4.85;1.13;;;6.00;1.00;;;;;;5078073;28;20139;-64
2023/12/22 10:02:42;;;;;;;6.57;2.03;;;6.00;1.00;;;;;;5082120;28;20522;-64
2023/12/22 10:05:10;;;;;;;10.05;1.60;;;6.00;99.90;;;;;;5076397;28;20871;-65
2023/12/22 10:07:35;;;;;;;6.15;1.30;;;6.10;99.90;;;;;;5058251;28;20388;-66
2023/12/22 10:10:03;;;;;;;9.35;1.10;;;6.10;99.90;;;;;;5069198;28;20040;-64
2023/12/22 10:12:30;;;;;;;7.57;1.52;;;6.10;99.90;;;;;;5065336;28;20044;-64
2023/12/22 10:14:58;;;;;;;8.35;1.60;;;6.10;99.90;;;;;;5082871;28;20428;-65
2023/12/22 10:17:25;;;;;;;8.10;1.48;;;6.20;99.90;;;;;;5067948;28;20036;-64
2023/12/22 10:19:51;;;;;;;11.25;1.58;;;6.20;99.90;;;;;;5068450;28;20039;-65
2023/12/22 10:22:17;;;;;;;7.97;1.35;;;6.30;99.90;;;;;;5056747;28;20117;-65
2023/12/22 10:24:47;;;;;;;7.03;1.40;;;6.30;99.90;;;;;;5053590;28;20044;-65
2023/12/22 10:27:16;;;;;;;8.95;1.35;;;6.40;99.90;;;;;;5070579;28;20036;-67
2023/12/22 10:29:42;;;;;;;6.63;1.20;;;6.40;99.90;;;;;;5056714;28;21647;-65
2023/12/22 10:32:11;;;;;;;5.72;1.00;;;6.40;99.90;;;;;;5055270;28;20051;-66
2023/12/22 10:34:37;;;;;;;10.32;1.50;;;6.50;99.90;;;;;;5061559;28;20036;-66
2023/12/22 10:37:02;;;;;;;11.30;1.75;;;6.50;99.90;;;;;;5048270;28;21031;-65
2023/12/22 10:39:32;;;;;;;11.88;1.58;;;6.50;99.90;;;;;;5069822;28;20035;-65
2023/12/22 10:41:58;;;;;;;11.68;1.55;;;6.50;99.90;;;;;;5066410;28;20036;-65
2023/12/22 10:44:25;;;;;;;11.65;1.90;;;6.50;99.90;;;;;;5064424;28;20044;-65
2023/12/22 10:46:51;;;;;;;6.35;1.30;;;6.50;99.90;;;;;;5066896;28;20040;-65
2023/12/22 10:49:16;;;;;;;8.00;1.33;;;6.50;99.90;;;;;;5067118;28;20062;-65
2023/12/22 10:51:42;;;;;;;11.48;1.33;;;6.50;99.90;;;;;;5069246;28;20581;-65
2023/12/22 10:54:08;;;;;;;12.80;1.27;;;6.50;99.90;;;;;;5078480;28;20051;-65
2023/12/22 10:56:34;;;;;;;5.82;1.45;;;6.60;99.90;;;;;;5072353;28;20040;-65
2023/12/22 10:59:01;;;;;;;9.68;1.50;;;6.60;99.90;;;;;;5071096;28;20960;-65
2023/12/22 11:01:30;;;;;;;9.15;1.67;;;6.60;99.90;;;;;;5061350;28;20039;-65
2023/12/22 11:04:01;;;;;;;8.45;2.53;;;6.60;99.90;;;;;;5075085;28;20134;-65
2023/12/22 11:06:28;;;;;;;12.38;1.50;;;6.70;99.90;;;;;;5077733;28;20111;-65
2023/12/22 11:08:57;;;;;;;13.15;3.42;;;6.70;99.90;;;;;;5048185;28;20051;-65
2023/12/22 11:11:30;;;;;;;13.52;1.90;;;6.70;99.90;;;;;;5057585;28;20084;-66
2023/12/22 11:13:57;;;;;;;16.08;2.10;;;6.80;99.90;;;;;;5065219;28;20369;-66
2023/12/22 11:16:24;;;;;;;12.15;2.03;;;6.80;99.90;;;;;;5078487;28;20548;-65
2023/12/22 11:18:53;;;;;;;8.95;1.70;;;6.80;99.90;;;;;;5074896;28;20043;-66
2023/12/22 11:21:21;;;;;;;12.43;2.17;;;6.90;99.90;;;;;;5047426;28;20115;-65
2023/12/22 11:23:49;;;;;;;9.32;1.98;;;6.90;99.90;;;;;;5051210;28;20043;-65
2023/12/22 11:26:16;;;;;;;8.20;1.83;;;6.90;99.90;;;;;;5064212;28;20524;-65
2023/12/22 11:28:44;;;;;;;9.55;1.52;;;7.00;99.90;;;;;;5061442;28;20040;-66
2023/12/22 11:31:11;;;;;;;14.52;2.25;;;7.00;99.90;;;;;;5045656;28;20048;-67
2023/12/22 11:33:39;;;;;;;8.05;1.77;;;7.00;99.90;;;;;;5058555;28;20360;-65
2023/12/22 11:36:06;;;;;;;14.43;2.25;;;7.00;99.90;;;;;;5062230;28;20040;-67
2023/12/22 11:38:31;;;;;;;7.88;1.65;;;7.10;99.90;;;;;;5067040;28;20036;-66
2023/12/22 11:40:59;;;;;;;9.15;1.52;;;7.10;99.90;;;;;;5068857;28;20058;-67
2023/12/22 11:43:26;;;;;;;12.13;1.92;;;7.10;99.90;;;;;;5077051;28;20064;-66
2023/12/22 11:45:52;;;;;;;10.05;1.80;;;7.20;99.90;;;;;;5061498;28;20048;-66
2023/12/22 11:48:17;;;;;;;9.68;1.98;;;7.20;99.90;;;;;;5072582;28;20043;-65
2023/12/22 11:50:44;;;;;;;9.82;2.40;;;7.10;99.90;;;;;;5053390;28;20112;-67
2023/12/22 11:53:24;;;;;;;10.18;2.13;;;7.20;99.90;;;;;;5067691;28;20089;-66
2023/12/22 11:55:57;;;;;;;13.20;1.70;;;7.20;99.90;;;;;;5061468;28;20045;-65
2023/12/22 11:58:41;;;;;;;9.45;1.60;;;7.20;99.90;;;;;;5069568;28;20032;-65
2023/12/22 12:01:12;;;;;;;6.95;1.42;;;7.20;99.90;;;;;;5075470;28;20068;-66
2023/12/22 12:03:59;;;;;;;11.82;2.78;;;7.20;99.90;;;;;;5082313;28;20035;-66
2023/12/22 12:06:25;;;;;;;6.93;1.30;;;7.20;99.90;;;;;;5049966;28;20043;-65
2023/12/22 12:08:51;;;;;;;12.73;1.73;;;7.10;99.90;;;;;;5065125;28;20036;-65
2023/12/22 12:11:20;;;;;;;11.40;2.00;;;7.20;99.90;;;;;;5077934;28;20036;-65
2023/12/22 12:13:47;;;;;;;9.82;2.05;;;7.10;99.90;;;;;;5059057;28;20039;-66
2023/12/22 12:16:22;;;;;;;9.43;2.28;;;7.10;99.90;;;;;;5070179;28;20028;-65
2023/12/22 12:18:47;;;;;;;11.20;1.25;;;7.10;99.90;;;;;;5054770;28;20534;-66
2023/12/22 12:21:15;;;;;;;8.20;1.58;;;7.10;99.90;;;;;;5073676;28;20036;-65
2023/12/22 12:23:41;;;;;;;11.75;1.65;;;7.10;99.90;;;;;;5064600;28;20415;-66
2023/12/22 12:26:08;;;;;;;10.75;1.95;;;7.10;99.90;;;;;;5076425;28;20043;-65
2023/12/22 12:28:35;;;;;;;13.68;2.30;;;7.10;99.90;;;;;;5063130;28;20050;-65
2023/12/22 12:31:06;;;;;;;11.82;1.73;;;7.10;99.90;;;;;;5062572;28;20087;-66
2023/12/22 12:33:32;;;;;;;14.63;1.77;;;7.10;99.90;;;;;;5058392;28;20044;-65
2023/12/22 12:35:59;;;;;;;12.23;2.15;;;7.10;99.90;;;;;;5071149;28;20037;-66
2023/12/22 12:38:52;;;;;;;8.85;1.70;;;7.10;99.90;;;;;;5046873;28;20040;-66
2023/12/22 12:41:28;;;;;;;9.25;1.80;;;7.10;1.00;;;;;;5048820;28;20044;-67
2023/12/22 12:43:56;;;;;;;11.13;1.73;;;7.10;99.90;;;;;;5057600;28;20041;-66
2023/12/22 12:46:21;;;;;;;9.15;2.08;;;7.20;99.90;;;;;;5065563;28;20059;-66
2023/12/22 12:48:47;;;;;;;9.45;1.40;;;7.20;99.90;;;;;;5065366;28;20388;-66